createdAt,value
2019-04-06T15:14:45.349Z,7.45
2019-04-06T15:17:16.341Z,7.33
2019-04-06T15:19:48.440Z,7.50
2019-04-06T15:22:35.828Z,8.58
2019-04-06T15:25:08.766Z,7.50
2019-04-06T15:27:44.064Z,7.20
2019-04-06T15:30:31.419Z,7.03
2019-04-06T15:33:09.123Z,7.03
2019-04-06T15:35:42.677Z,7.20
2019-04-06T15:38:18.093Z,7.03
2019-04-06T15:40:49.120Z,6.92
2019-04-06T15:43:20.099Z,6.40
2019-04-06T15:45:51.941Z,6.60
2019-04-06T15:50:55.053Z,6.47
2019-04-06T15:53:26.839Z,6.87
2019-04-06T15:55:57.949Z,6.95
2019-04-06T15:58:29.300Z,6.20
2019-04-06T16:01:12.853Z,6.42
2019-04-06T16:03:43.872Z,7.10
2019-04-06T16:06:13.203Z,6.20
2019-04-06T16:08:42.359Z,6.30
2019-04-06T16:11:27.939Z,5.85
2019-04-06T16:14:17.066Z,6.05
2019-04-06T16:16:53.816Z,5.78
2019-04-06T16:19:31.759Z,5.65
2019-04-06T16:22:05.658Z,5.67
2019-04-06T16:24:39.513Z,6.05
2019-04-06T16:27:10.531Z,6.85
2019-04-06T16:29:47.218Z,6.25
2019-04-06T16:32:31.481Z,5.60
2019-04-06T16:35:10.510Z,6.42
2019-04-06T16:37:44.165Z,6.15
2019-04-06T16:40:33.213Z,6.45
2019-04-06T16:43:14.033Z,6.97
2019-04-06T16:45:46.075Z,6.75
2019-04-06T16:50:48.449Z,6.87
2019-04-06T16:53:19.447Z,6.70
2019-04-06T16:56:06.790Z,6.62
2019-04-06T16:58:37.796Z,6.90
2019-04-06T17:01:08.834Z,7.00
2019-04-06T17:03:43.456Z,8.13
2019-04-06T17:06:29.546Z,6.97
2019-04-06T17:09:10.642Z,7.40
2019-04-06T17:11:50.993Z,7.22
2019-04-06T17:14:37.136Z,7.65
2019-04-06T17:17:13.996Z,7.15
2019-04-06T17:20:01.191Z,6.92
2019-04-06T17:22:33.575Z,8.05
2019-04-06T17:25:02.971Z,7.78
2019-04-06T17:27:49.695Z,7.85
2019-04-06T17:30:23.358Z,7.80
2019-04-06T17:33:03.229Z,7.87
2019-04-06T17:35:34.656Z,7.70
2019-04-06T17:38:08.397Z,7.72
2019-04-06T17:40:39.370Z,7.87
2019-04-06T17:43:11.848Z,7.92
2019-04-06T17:45:48.684Z,7.67
2019-04-06T17:48:24.410Z,8.43
2019-04-06T17:51:02.531Z,8.23
2019-04-06T17:53:41.070Z,12.05
2019-04-06T17:56:16.104Z,11.00
2019-04-06T17:59:03.070Z,12.45
2019-04-06T18:01:32.214Z,15.08
2019-04-06T18:04:13.100Z,17.20
2019-04-06T18:07:00.606Z,16.45
2019-04-06T18:09:29.715Z,17.32
2019-04-06T18:12:04.715Z,17.17
2019-04-06T18:14:34.053Z,16.77
2019-04-06T18:17:03.599Z,16.73
2019-04-06T18:19:34.737Z,16.85
2019-04-06T18:22:04.111Z,16.45
2019-04-06T18:24:33.990Z,16.23
2019-04-06T18:27:03.832Z,16.05
2019-04-06T18:29:33.229Z,16.70
2019-04-06T18:32:04.758Z,17.48
2019-04-06T18:34:34.127Z,15.30
2019-04-06T18:37:03.626Z,16.80
2019-04-06T18:39:33.525Z,16.70
2019-04-06T18:42:03.685Z,17.70
2019-04-06T18:44:33.025Z,15.83
2019-04-06T18:47:02.465Z,14.90
2019-04-06T18:49:31.893Z,16.62
2019-04-06T18:52:01.199Z,15.08
2019-04-06T18:54:30.673Z,15.23
2019-04-06T18:57:00.576Z,14.85
2019-04-06T18:59:30.025Z,13.55
2019-04-06T19:01:59.559Z,14.45
2019-04-06T19:04:29.339Z,13.95
2019-04-06T19:06:59.095Z,14.87
2019-04-06T19:09:28.461Z,15.05
2019-04-06T19:11:57.818Z,15.13
2019-04-06T19:14:27.155Z,13.98
2019-04-06T19:16:57.002Z,13.35
2019-04-06T19:19:26.510Z,14.20
2019-04-06T19:21:56.067Z,14.10
2019-04-06T19:24:25.753Z,14.87
2019-04-06T19:26:55.381Z,13.90
2019-04-06T19:29:24.874Z,13.90
2019-04-06T19:31:54.180Z,13.40
2019-04-06T19:34:23.556Z,13.45
2019-04-06T19:36:53.169Z,13.78
2019-04-06T19:39:23.010Z,13.50
2019-04-06T19:41:52.601Z,13.00
2019-04-06T19:44:21.991Z,14.00
2019-04-06T19:46:51.416Z,13.98
2019-04-06T19:49:20.739Z,12.98
2019-04-06T19:51:50.115Z,13.68
2019-04-06T19:54:19.785Z,12.65
2019-04-06T19:56:49.485Z,12.37
2019-04-06T19:59:18.842Z,12.58
2019-04-06T20:01:48.257Z,14.10
2019-04-06T20:04:17.642Z,12.25
2019-04-06T20:06:46.986Z,12.90
2019-04-06T20:09:16.401Z,13.90
2019-04-06T20:11:45.752Z,14.00
2019-04-06T20:14:15.127Z,13.68
2019-04-06T20:16:44.751Z,14.55
2019-04-06T20:19:14.177Z,14.63
2019-04-06T20:21:43.522Z,14.43
2019-04-06T20:24:12.930Z,14.83
2019-04-06T20:26:42.786Z,14.80
2019-04-06T20:29:12.620Z,14.15
2019-04-06T20:31:42.182Z,14.18
2019-04-06T20:34:11.878Z,14.15
2019-04-06T20:36:41.354Z,14.58
2019-04-06T20:39:11.266Z,16.07
2019-04-06T20:41:40.709Z,15.38
2019-04-06T20:44:10.071Z,15.40
2019-04-06T20:46:39.824Z,14.43
2019-04-06T20:49:09.339Z,15.63
2019-04-06T20:51:38.991Z,16.07
2019-04-06T20:54:09.118Z,16.62
2019-04-06T20:56:38.635Z,17.65
2019-04-06T20:59:07.972Z,16.80
2019-04-06T21:01:37.328Z,15.78
2019-04-06T21:04:06.854Z,16.50
2019-04-06T21:06:36.966Z,18.05
2019-04-06T21:09:09.266Z,17.73
2019-04-06T21:11:39.278Z,17.05
2019-04-06T21:14:08.984Z,17.42
2019-04-06T21:16:38.941Z,16.60
2019-04-06T21:19:08.449Z,17.35
2019-04-06T21:21:38.090Z,17.37
2019-04-06T21:24:08.043Z,17.10
2019-04-06T21:26:38.050Z,18.55
2019-04-06T21:29:07.977Z,18.98
2019-04-06T21:31:37.441Z,18.27
2019-04-06T21:34:12.806Z,19.32
2019-04-06T21:36:38.059Z,18.67
2019-04-06T21:39:08.733Z,18.70
2019-04-06T21:41:38.468Z,19.37
2019-04-06T21:44:07.997Z,19.45
2019-04-06T21:46:37.352Z,19.00
2019-04-06T21:49:06.713Z,18.92
2019-04-06T21:51:36.162Z,19.00
2019-04-06T21:54:05.632Z,20.70
2019-04-06T21:56:35.710Z,19.98
2019-04-06T21:59:05.417Z,18.92
2019-04-06T22:01:35.592Z,20.32
2019-04-06T22:04:05.395Z,19.67
2019-04-06T22:06:35.071Z,19.75
2019-04-06T22:09:09.421Z,19.02
2019-04-06T22:11:38.974Z,19.52
2019-04-06T22:14:08.316Z,18.12
2019-04-06T22:16:38.123Z,19.92
2019-04-06T22:19:07.943Z,20.40
2019-04-06T22:21:37.537Z,20.00
2019-04-06T22:24:06.901Z,19.65
2019-04-06T22:26:36.238Z,19.65
2019-04-06T22:29:06.526Z,19.02
2019-04-06T22:31:35.975Z,19.48
2019-04-06T22:34:05.478Z,19.23
2019-04-06T22:36:34.823Z,20.25
2019-04-06T22:39:06.071Z,19.57
2019-04-06T22:41:35.648Z,19.60
2019-04-06T22:44:05.830Z,19.95
2019-04-06T22:46:35.462Z,22.10
2019-04-06T22:49:05.544Z,21.30
2019-04-06T22:51:35.626Z,20.82
2019-04-06T22:54:05.292Z,20.20
2019-04-06T22:56:34.673Z,20.80
2019-04-06T22:59:04.022Z,20.88
2019-04-06T23:01:35.456Z,21.05
2019-04-06T23:04:04.724Z,22.13
2019-04-06T23:06:39.088Z,21.23
2019-04-06T23:09:10.064Z,20.20
2019-04-06T23:11:39.978Z,21.10
2019-04-06T23:14:10.047Z,20.97
2019-04-06T23:16:39.715Z,20.40
2019-04-06T23:19:09.655Z,19.70
2019-04-06T23:21:39.568Z,20.27
2019-04-06T23:24:09.045Z,20.88
2019-04-06T23:26:39.059Z,19.87
2019-04-06T23:29:08.808Z,20.80
2019-04-06T23:31:38.367Z,20.95
2019-04-06T23:34:07.952Z,20.62
2019-04-06T23:36:37.518Z,20.23
2019-04-06T23:39:08.088Z,20.23
2019-04-06T23:41:37.846Z,19.90
2019-04-06T23:44:07.892Z,20.40
2019-04-06T23:46:37.507Z,19.00
2019-04-06T23:49:06.857Z,19.12
2019-04-06T23:51:36.207Z,20.50
2019-04-06T23:54:05.556Z,20.70
2019-04-06T23:56:35.183Z,20.82
2019-04-06T23:59:04.939Z,20.12
